Tobermory, Canada
Current Conditions -  °F | °C
As of 4:00 AM on Sunday 21 Dec 2014 (Local Time) from CYVV Reporting Station
Overcast Overcast  
Wind Chill: 20°   Ceiling: 3000
Heat Index: 27°   Visibility: 15mi
Dew Point: 23°   Wind: 6mph
Humidity: 86%   Direction: 160°SSE
Pressure: 30.26"   Gusts: NA
Location:  45.25°N, 81.67°W
Report Text: CYVV 210900Z 16005KT 15SM OVC030 M03/M05 A3026 RMK SC8 SLP257
Loading
Personal Weather Stations






























Interactive Weather Map New forecast layout! Learn more

10-Day Weather Forecast

Advertisements
Track Severe Weather on mobile